createdAt,value
2023-02-27T00:00:26.249Z,-2.34
2023-02-27T00:02:54.342Z,-2.23
2023-02-27T00:05:23.161Z,-2.51
2023-02-27T00:07:51.983Z,-2.35
2023-02-27T00:10:20.356Z,-2.32
2023-02-27T00:12:48.014Z,-2.41
2023-02-27T00:15:18.889Z,-2.43
2023-02-27T00:17:46.870Z,-2.61
2023-02-27T00:20:16.407Z,-2.46
2023-02-27T00:22:44.992Z,-2.73
2023-02-27T00:25:13.589Z,-2.68
2023-02-27T00:27:41.445Z,-2.90
2023-02-27T00:30:12.660Z,-2.96
2023-02-27T00:32:40.686Z,-2.72
2023-02-27T00:35:10.884Z,-2.76
2023-02-27T00:37:38.542Z,-2.95
2023-02-27T00:40:07.197Z,-2.89
2023-02-27T00:42:34.998Z,-2.98
2023-02-27T00:45:04.485Z,-2.90
2023-02-27T00:47:33.597Z,-2.80
2023-02-27T00:50:01.669Z,-3.04
2023-02-27T00:52:31.052Z,-3.13
2023-02-27T00:55:00.019Z,-2.94
2023-02-27T00:57:28.806Z,-2.79
2023-02-27T00:59:56.830Z,-2.97
2023-02-27T01:02:25.091Z,-2.95
2023-02-27T01:04:53.913Z,-3.13
2023-02-27T01:07:21.567Z,-3.00
2023-02-27T01:09:49.118Z,-3.04
2023-02-27T01:12:16.730Z,-3.27
2023-02-27T01:14:45.220Z,-3.18
2023-02-27T01:17:13.047Z,-3.27
2023-02-27T01:19:40.707Z,-3.21
2023-02-27T01:22:08.301Z,-3.25
2023-02-27T01:24:35.919Z,-3.18
2023-02-27T01:27:03.761Z,-2.78
2023-02-27T01:29:32.218Z,-3.14
2023-02-27T01:31:59.964Z,-3.12
2023-02-27T01:34:27.721Z,-3.27
2023-02-27T01:36:55.350Z,-2.99
2023-02-27T01:39:22.875Z,-2.98
2023-02-27T01:41:50.516Z,-3.12
2023-02-27T01:44:18.171Z,-3.42
2023-02-27T01:46:45.832Z,-3.25
2023-02-27T01:49:30.107Z,-3.34
2023-02-27T01:52:06.354Z,-3.40
2023-02-27T01:54:37.390Z,-3.45
2023-02-27T01:57:07.090Z,-3.38
2023-02-27T01:59:36.272Z,-3.44
2023-02-27T02:02:08.503Z,-3.23
2023-02-27T02:04:38.754Z,-3.19
2023-02-27T02:07:12.919Z,-3.06
2023-02-27T02:09:44.959Z,-3.30
2023-02-27T02:12:15.368Z,-3.22
2023-02-27T02:14:44.752Z,-3.30
2023-02-27T02:17:36.169Z,-3.21
2023-02-27T02:20:48.998Z,-3.22
2023-02-27T02:24:04.210Z,-3.35
2023-02-27T02:26:51.511Z,-3.17
2023-02-27T02:29:41.248Z,-3.04
2023-02-27T02:32:45.690Z,-3.02
2023-02-27T02:35:42.831Z,-3.22
2023-02-27T02:38:28.143Z,-3.21
2023-02-27T02:41:04.642Z,-3.27
2023-02-27T02:44:12.958Z,-3.27
2023-02-27T02:47:02.858Z,-3.30
2023-02-27T02:49:44.264Z,-3.33
2023-02-27T02:52:24.151Z,-3.20
2023-02-27T02:55:10.672Z,-3.28
2023-02-27T02:58:10.919Z,-3.14
2023-02-27T03:01:04.397Z,-3.45
2023-02-27T03:03:39.767Z,-3.36
2023-02-27T03:06:17.749Z,-3.01
2023-02-27T03:08:56.120Z,-2.96
2023-02-27T03:11:28.308Z,-3.03
2023-02-27T03:14:35.223Z,-2.96
2023-02-27T03:17:17.124Z,-3.04
2023-02-27T03:20:04.906Z,-2.99
2023-02-27T03:22:37.601Z,-2.96
2023-02-27T03:25:08.530Z,-2.91
2023-02-27T03:27:45.728Z,-3.11
2023-02-27T03:30:28.893Z,-3.07
2023-02-27T03:33:26.012Z,-3.23
2023-02-27T03:36:12.594Z,-2.99
2023-02-27T03:39:01.881Z,-2.99
2023-02-27T03:41:35.751Z,-3.01
2023-02-27T03:44:52.403Z,-3.08
2023-02-27T03:47:20.952Z,-3.08
2023-02-27T03:49:51.578Z,-3.18
2023-02-27T03:52:22.963Z,-3.03
2023-02-27T03:55:11.796Z,-3.15
2023-02-27T03:57:41.515Z,-3.14
2023-02-27T04:00:13.163Z,-3.12
2023-02-27T04:02:47.274Z,-2.93
2023-02-27T04:05:19.164Z,-3.10
2023-02-27T04:08:33.258Z,-3.24
2023-02-27T04:11:32.812Z,-3.05
2023-02-27T04:14:21.252Z,-3.27
2023-02-27T04:16:53.555Z,-3.14
2023-02-27T04:19:54.674Z,-3.01
2023-02-27T04:22:36.033Z,-3.11
2023-02-27T04:25:28.239Z,-2.98
2023-02-27T04:28:17.687Z,-2.99
2023-02-27T04:31:19.756Z,-2.87
2023-02-27T04:34:09.071Z,-2.85
2023-02-27T04:36:45.524Z,-3.15
2023-02-27T04:39:25.148Z,-2.89
2023-02-27T04:41:59.559Z,-2.95
2023-02-27T04:44:30.891Z,-2.91
2023-02-27T04:47:01.366Z,-2.84
2023-02-27T04:49:33.799Z,-2.70
2023-02-27T04:52:14.506Z,-2.39
2023-02-27T04:55:00.278Z,-2.51
2023-02-27T04:57:33.045Z,-2.50
2023-02-27T05:00:06.478Z,-2.39
2023-02-27T05:02:40.838Z,-2.50
2023-02-27T05:05:16.845Z,-2.53
2023-02-27T05:07:51.801Z,-2.28
2023-02-27T05:10:36.991Z,-2.24
2023-02-27T05:13:13.596Z,-2.18
2023-02-27T05:15:48.009Z,-1.99
2023-02-27T05:18:19.751Z,-1.85
2023-02-27T05:20:56.210Z,-1.64
2023-02-27T05:24:10.166Z,-1.56
2023-02-27T05:27:11.659Z,-1.64
2023-02-27T05:30:01.159Z,-1.52
2023-02-27T05:32:43.246Z,-1.34
2023-02-27T05:35:38.797Z,-1.42
2023-02-27T05:38:22.382Z,-1.27
2023-02-27T05:41:00.204Z,-1.19
2023-02-27T05:43:50.984Z,-1.15
2023-02-27T05:46:32.819Z,-0.98
2023-02-27T05:49:11.067Z,-0.84
2023-02-27T05:51:40.688Z,-0.78
2023-02-27T05:54:16.477Z,-0.82
2023-02-27T05:56:49.984Z,-0.67
2023-02-27T05:59:34.785Z,-0.63
2023-02-27T06:02:02.585Z,-0.51
2023-02-27T06:04:30.181Z,-0.48
2023-02-27T06:06:58.320Z,-0.36
2023-02-27T06:09:25.871Z,-0.41
2023-02-27T06:11:53.440Z,-0.22
2023-02-27T06:14:20.857Z,-0.27
2023-02-27T06:16:48.401Z,-0.06
2023-02-27T06:19:15.993Z,0.12
2023-02-27T06:21:43.547Z,0.04
2023-02-27T06:24:11.173Z,0.04
2023-02-27T06:26:38.842Z,0.26
2023-02-27T06:29:06.375Z,0.26
2023-02-27T06:31:33.905Z,0.40
2023-02-27T06:34:01.464Z,0.48
2023-02-27T06:36:30.453Z,0.64
2023-02-27T06:38:58.517Z,0.59
2023-02-27T06:41:26.114Z,0.79
2023-02-27T06:43:53.637Z,1.09
2023-02-27T06:46:21.223Z,1.29
2023-02-27T06:48:48.801Z,1.38
2023-02-27T06:51:16.565Z,1.47
2023-02-27T06:53:44.069Z,1.60
2023-02-27T06:56:11.742Z,1.72
2023-02-27T06:58:39.445Z,1.83
2023-02-27T07:01:07.131Z,1.93
2023-02-27T07:03:34.692Z,1.98
2023-02-27T07:06:02.943Z,2.13
2023-02-27T07:08:30.752Z,2.23
2023-02-27T07:10:58.646Z,2.41
2023-02-27T07:13:26.161Z,2.53
2023-02-27T07:15:54.395Z,2.62
2023-02-27T07:18:22.058Z,2.76
2023-02-27T07:20:55.587Z,2.81
2023-02-27T07:23:23.905Z,2.88
2023-02-27T07:25:51.608Z,2.96
2023-02-27T07:28:19.605Z,3.06
2023-02-27T07:30:47.314Z,3.14
2023-02-27T07:33:14.908Z,3.25
2023-02-27T07:35:42.511Z,3.35
2023-02-27T07:38:10.032Z,3.43
2023-02-27T07:40:37.594Z,3.51
2023-02-27T07:43:05.148Z,3.62
2023-02-27T07:45:32.700Z,3.77
2023-02-27T07:48:00.214Z,3.81
2023-02-27T07:50:27.893Z,3.93
2023-02-27T07:52:55.632Z,4.02
2023-02-27T07:55:23.258Z,4.09
2023-02-27T07:57:50.865Z,4.14
2023-02-27T08:00:18.856Z,4.21
2023-02-27T08:02:46.582Z,4.24
2023-02-27T08:05:14.218Z,4.26
2023-02-27T08:07:41.746Z,4.35
2023-02-27T08:10:10.162Z,4.44
2023-02-27T08:12:37.650Z,4.48
2023-02-27T08:15:05.950Z,4.53
2023-02-27T08:17:33.452Z,4.57
2023-02-27T08:20:00.928Z,4.58
2023-02-27T08:22:28.828Z,4.63
2023-02-27T08:24:56.382Z,4.72
2023-02-27T08:27:24.311Z,4.78
2023-02-27T08:29:51.952Z,4.81
2023-02-27T08:32:19.735Z,4.78
2023-02-27T08:34:47.313Z,4.80
2023-02-27T08:37:14.770Z,4.79
2023-02-27T08:39:42.396Z,4.74
2023-02-27T08:42:10.266Z,4.75
2023-02-27T08:44:37.943Z,4.74
2023-02-27T08:47:05.606Z,4.86
2023-02-27T08:49:33.252Z,4.72
2023-02-27T08:52:01.493Z,4.92
2023-02-27T08:54:29.043Z,4.91
2023-02-27T08:56:56.620Z,4.94
2023-02-27T08:59:24.257Z,4.91
2023-02-27T09:01:51.804Z,4.93
2023-02-27T09:04:19.270Z,4.94
2023-02-27T09:06:47.075Z,4.98
2023-02-27T09:09:14.674Z,5.00
2023-02-27T09:11:42.241Z,5.10
2023-02-27T09:14:09.744Z,5.11
2023-02-27T09:16:37.339Z,5.08
2023-02-27T09:19:05.137Z,5.19
2023-02-27T09:21:32.709Z,5.18
2023-02-27T09:24:07.372Z,5.13
2023-02-27T09:26:46.504Z,5.20
2023-02-27T09:29:14.321Z,5.09
2023-02-27T09:31:42.407Z,5.21
2023-02-27T09:34:10.033Z,5.17
2023-02-27T09:36:37.598Z,5.17
2023-02-27T09:39:05.272Z,5.16
2023-02-27T09:42:15.921Z,5.19
2023-02-27T09:44:49.936Z,5.08
2023-02-27T09:47:37.727Z,5.06
2023-02-27T09:50:28.102Z,5.05
2023-02-27T09:52:55.808Z,4.82
2023-02-27T09:55:25.454Z,4.87
2023-02-27T09:58:16.489Z,5.00
2023-02-27T10:00:58.279Z,5.04
2023-02-27T10:03:31.699Z,4.97
2023-02-27T10:06:27.495Z,5.07
2023-02-27T10:09:22.923Z,5.01
2023-02-27T10:12:17.756Z,4.89
2023-02-27T10:14:50.909Z,4.88
2023-02-27T10:17:42.618Z,4.95
2023-02-27T10:20:32.761Z,5.07
2023-02-27T10:23:05.535Z,5.02
2023-02-27T10:25:39.572Z,4.88
2023-02-27T10:28:16.009Z,4.94
2023-02-27T10:30:48.763Z,4.87
2023-02-27T10:33:48.366Z,4.83
2023-02-27T10:36:32.555Z,4.76
2023-02-27T10:39:09.292Z,4.82
2023-02-27T10:41:40.009Z,4.72
2023-02-27T10:44:07.845Z,4.79
2023-02-27T10:46:40.271Z,4.84
2023-02-27T10:49:19.068Z,4.84
2023-02-27T10:52:04.803Z,4.82
2023-02-27T10:54:32.389Z,4.80
2023-02-27T10:57:05.670Z,4.76
2023-02-27T10:59:40.707Z,4.76
2023-02-27T11:02:17.300Z,4.83
2023-02-27T11:04:54.235Z,4.78
2023-02-27T11:07:39.286Z,4.76
2023-02-27T11:10:15.466Z,4.71
2023-02-27T11:12:58.119Z,4.74
2023-02-27T11:15:29.364Z,4.66
2023-02-27T11:18:19.844Z,4.68
2023-02-27T11:20:50.994Z,4.40
2023-02-27T11:23:24.310Z,4.43
2023-02-27T11:26:09.493Z,4.39
2023-02-27T11:28:37.022Z,4.29
2023-02-27T11:31:15.498Z,4.37
2023-02-27T11:33:54.936Z,4.52
2023-02-27T11:36:25.534Z,4.55
2023-02-27T11:38:55.137Z,4.53
2023-02-27T11:41:34.712Z,4.55
2023-02-27T11:44:05.841Z,4.55
2023-02-27T11:46:47.907Z,4.46
2023-02-27T11:49:54.393Z,4.55
2023-02-27T11:52:38.584Z,4.53
2023-02-27T11:55:10.765Z,4.52
2023-02-27T11:57:44.226Z,4.51
2023-02-27T12:00:18.312Z,4.50
2023-02-27T12:03:01.185Z,4.48
2023-02-27T12:05:33.480Z,4.40
2023-02-27T12:08:12.305Z,4.41
2023-02-27T12:11:11.492Z,4.46
2023-02-27T12:13:47.540Z,4.31
2023-02-27T12:16:33.302Z,4.37
2023-02-27T12:19:26.845Z,4.28
2023-02-27T12:22:14.087Z,4.21
2023-02-27T12:24:51.698Z,4.31
2023-02-27T12:27:26.753Z,4.24
2023-02-27T12:30:13.714Z,4.34
2023-02-27T12:32:54.881Z,4.32
2023-02-27T12:35:31.273Z,4.24
2023-02-27T12:37:59.321Z,4.10
2023-02-27T12:41:01.573Z,4.24
2023-02-27T12:43:53.278Z,4.24
2023-02-27T12:46:44.310Z,4.19
2023-02-27T12:49:15.161Z,4.27
2023-02-27T12:51:52.268Z,4.24
2023-02-27T12:54:46.585Z,4.21
2023-02-27T12:57:32.941Z,4.27
2023-02-27T13:00:15.453Z,4.36
2023-02-27T13:03:11.916Z,4.25
2023-02-27T13:05:53.353Z,4.25
2023-02-27T13:08:33.258Z,4.25
2023-02-27T13:11:25.751Z,4.28
2023-02-27T13:13:56.914Z,4.17
2023-02-27T13:16:46.922Z,4.25
2023-02-27T13:19:16.418Z,4.17
2023-02-27T13:21:43.979Z,4.04
2023-02-27T13:24:24.409Z,4.14
2023-02-27T13:27:19.754Z,4.14
2023-02-27T13:30:05.610Z,3.98
2023-02-27T13:32:45.407Z,3.98
2023-02-27T13:35:36.500Z,3.99
2023-02-27T13:38:25.073Z,3.89
2023-02-27T13:40:52.893Z,3.82
2023-02-27T13:43:53.610Z,4.06
2023-02-27T13:46:32.164Z,4.05
2023-02-27T13:49:29.343Z,4.08
2023-02-27T13:52:00.809Z,3.93
2023-02-27T13:54:41.113Z,4.03
2023-02-27T13:57:19.454Z,4.06
2023-02-27T14:00:24.132Z,4.11
2023-02-27T14:03:26.196Z,4.24
2023-02-27T14:05:58.725Z,4.07
2023-02-27T14:08:29.992Z,4.06
2023-02-27T14:11:03.155Z,4.09
2023-02-27T14:13:46.014Z,4.14
2023-02-27T14:16:39.484Z,4.19
2023-02-27T14:19:16.228Z,4.20
2023-02-27T14:22:14.430Z,4.21
2023-02-27T14:25:01.706Z,4.17
2023-02-27T14:27:38.939Z,4.20
2023-02-27T14:30:22.270Z,4.15
2023-02-27T14:32:57.659Z,4.19
2023-02-27T14:35:32.518Z,4.18
2023-02-27T14:38:08.434Z,4.15
2023-02-27T14:40:44.003Z,4.09
2023-02-27T14:43:45.408Z,4.22
2023-02-27T14:46:23.934Z,4.16
2023-02-27T14:49:04.100Z,4.10
2023-02-27T14:51:37.634Z,4.10
2023-02-27T14:54:10.369Z,4.16
2023-02-27T14:56:38.076Z,4.06
2023-02-27T14:59:27.201Z,4.15
2023-02-27T15:01:57.457Z,4.13
2023-02-27T15:04:28.096Z,4.21
2023-02-27T15:06:57.961Z,4.18
2023-02-27T15:09:40.900Z,4.22
2023-02-27T15:12:10.654Z,4.12
2023-02-27T15:14:40.228Z,4.09
2023-02-27T15:17:23.741Z,4.18
2023-02-27T15:19:52.910Z,4.33
2023-02-27T15:22:37.950Z,4.20
2023-02-27T15:25:08.405Z,4.20
2023-02-27T15:27:40.145Z,4.10
2023-02-27T15:30:08.687Z,4.02
2023-02-27T15:32:42.613Z,4.02
2023-02-27T15:35:28.446Z,4.14
2023-02-27T15:37:58.356Z,3.88
2023-02-27T15:40:29.549Z,3.76
2023-02-27T15:42:58.822Z,3.60
2023-02-27T15:45:36.546Z,3.75
2023-02-27T15:48:05.492Z,3.58
2023-02-27T15:50:43.388Z,3.63
2023-02-27T15:53:19.421Z,3.72
2023-02-27T15:56:06.501Z,3.65
2023-02-27T15:58:37.613Z,3.68
2023-02-27T16:01:14.210Z,3.74
2023-02-27T16:03:53.567Z,3.70
2023-02-27T16:06:30.501Z,3.82
2023-02-27T16:09:00.615Z,3.77
2023-02-27T16:11:34.520Z,3.82
2023-02-27T16:14:02.151Z,3.94
2023-02-27T16:16:36.575Z,3.83
2023-02-27T16:19:31.148Z,3.90
2023-02-27T16:22:17.907Z,3.92
2023-02-27T16:24:46.224Z,3.78
2023-02-27T16:27:25.138Z,3.97
2023-02-27T16:29:56.117Z,3.91
2023-02-27T16:32:27.736Z,3.91
2023-02-27T16:35:23.118Z,4.01
2023-02-27T16:37:53.848Z,3.89
2023-02-27T16:40:24.856Z,3.93
2023-02-27T16:42:53.381Z,3.90
2023-02-27T16:45:27.098Z,3.93
2023-02-27T16:47:57.711Z,3.81
2023-02-27T16:50:30.889Z,4.01
2023-02-27T16:52:58.398Z,3.86
2023-02-27T16:55:27.168Z,3.84
2023-02-27T16:57:57.604Z,3.73
2023-02-27T17:00:25.257Z,3.78
2023-02-27T17:02:52.964Z,3.74
2023-02-27T17:05:20.663Z,3.75
2023-02-27T17:07:49.059Z,3.76
2023-02-27T17:10:19.119Z,3.82
2023-02-27T17:12:48.202Z,3.75
2023-02-27T17:15:16.540Z,3.78
2023-02-27T17:17:44.452Z,3.72
2023-02-27T17:20:14.283Z,3.65
2023-02-27T17:22:44.898Z,3.75
2023-02-27T17:25:13.847Z,3.65
2023-02-27T17:27:44.054Z,3.30
2023-02-27T17:30:12.602Z,3.36
2023-02-27T17:32:40.260Z,3.27
2023-02-27T17:35:08.282Z,2.99
2023-02-27T17:37:35.840Z,3.25
2023-02-27T17:40:04.976Z,3.24
2023-02-27T17:42:33.018Z,3.25
2023-02-27T17:45:01.772Z,3.26
2023-02-27T17:47:31.285Z,3.11
2023-02-27T17:49:58.965Z,2.98
2023-02-27T17:52:27.727Z,2.93
2023-02-27T17:54:55.944Z,2.81
2023-02-27T17:57:23.579Z,2.85
2023-02-27T17:59:51.112Z,2.79
2023-02-27T18:02:18.773Z,2.76
2023-02-27T18:04:47.197Z,2.77
2023-02-27T18:07:14.889Z,2.87
2023-02-27T18:09:42.473Z,2.95
2023-02-27T18:12:10.027Z,3.13
2023-02-27T18:14:37.553Z,3.07
2023-02-27T18:17:07.196Z,2.88
2023-02-27T18:19:34.944Z,2.86
2023-02-27T18:22:02.484Z,2.81
2023-02-27T18:24:30.033Z,2.96
2023-02-27T18:26:58.132Z,3.02
2023-02-27T18:29:25.674Z,2.98
2023-02-27T18:31:55.157Z,2.89
2023-02-27T18:34:24.276Z,2.90
2023-02-27T18:36:57.212Z,2.55
2023-02-27T18:39:28.137Z,2.52
2023-02-27T18:41:55.779Z,2.67
2023-02-27T18:44:23.348Z,2.48
2023-02-27T18:46:51.197Z,2.57
2023-02-27T18:49:18.965Z,2.71
2023-02-27T18:51:46.842Z,2.67
2023-02-27T18:54:15.344Z,2.73
2023-02-27T18:56:42.949Z,2.76
2023-02-27T18:59:12.452Z,2.90
2023-02-27T19:01:40.009Z,2.92
2023-02-27T19:04:09.860Z,2.94
2023-02-27T19:06:41.215Z,2.86
2023-02-27T19:09:11.288Z,2.85
2023-02-27T19:11:39.231Z,2.71
2023-02-27T19:14:09.502Z,2.70
2023-02-27T19:16:37.178Z,2.69
2023-02-27T19:19:05.968Z,2.67
2023-02-27T19:21:34.250Z,2.56
2023-02-27T19:24:02.124Z,2.50
2023-02-27T19:26:30.340Z,2.43
2023-02-27T19:28:58.088Z,2.54
2023-02-27T19:31:25.981Z,2.44
2023-02-27T19:33:53.732Z,2.55
2023-02-27T19:36:23.172Z,2.43
2023-02-27T19:38:50.936Z,2.43
2023-02-27T19:41:19.659Z,2.27
2023-02-27T19:43:48.333Z,2.33
2023-02-27T19:46:24.349Z,2.30
2023-02-27T19:49:00.570Z,2.20
2023-02-27T19:51:28.900Z,2.33
2023-02-27T19:53:59.768Z,2.05
2023-02-27T19:56:31.784Z,2.35
2023-02-27T19:59:03.386Z,2.57
2023-02-27T20:01:34.563Z,2.16
2023-02-27T20:04:03.842Z,2.25
2023-02-27T20:06:34.086Z,2.13
2023-02-27T20:09:01.705Z,1.68
2023-02-27T20:11:31.230Z,1.85
2023-02-27T20:13:59.230Z,1.61
2023-02-27T20:16:30.382Z,1.78
2023-02-27T20:18:58.415Z,1.83
2023-02-27T20:21:29.039Z,2.04
2023-02-27T20:23:58.443Z,2.05
2023-02-27T20:26:34.013Z,2.29
2023-02-27T20:29:08.950Z,2.00
2023-02-27T20:31:38.240Z,2.12
2023-02-27T20:34:07.067Z,2.19
2023-02-27T20:36:35.950Z,2.36
2023-02-27T20:39:04.793Z,2.27
2023-02-27T20:48:05.511Z,1.73
2023-02-27T20:50:35.151Z,1.90
2023-02-27T20:57:25.476Z,1.90
2023-02-27T21:12:47.321Z,1.50
2023-02-27T21:17:57.356Z,1.68
2023-02-27T21:20:24.903Z,1.82
2023-02-27T21:22:56.056Z,1.81
2023-02-27T21:25:24.599Z,1.92
2023-02-27T21:27:52.278Z,1.97
2023-02-27T21:30:20.090Z,2.03
2023-02-27T21:32:47.651Z,1.92
2023-02-27T21:35:16.595Z,1.88
2023-02-27T21:37:47.025Z,1.84
2023-02-27T21:40:15.311Z,1.80
2023-02-27T21:42:46.028Z,2.00
2023-02-27T21:45:13.603Z,2.07
2023-02-27T21:47:41.146Z,2.04
2023-02-27T21:50:14.360Z,2.13
2023-02-27T21:52:42.631Z,2.17
2023-02-27T21:55:12.062Z,2.31
2023-02-27T21:57:41.160Z,2.25
2023-02-27T22:00:13.972Z,2.10
2023-02-27T22:02:41.730Z,1.92
2023-02-27T22:05:09.587Z,1.75
2023-02-27T22:07:37.820Z,1.71
2023-02-27T22:10:05.758Z,1.80
2023-02-27T22:12:33.277Z,1.65
2023-02-27T22:15:00.869Z,1.62
2023-02-27T22:17:28.592Z,1.74
2023-02-27T22:19:56.217Z,1.61
2023-02-27T22:22:24.527Z,1.58
2023-02-27T22:24:52.142Z,1.65
2023-02-27T22:27:19.804Z,1.56
2023-02-27T22:29:47.317Z,1.83
2023-02-27T22:32:15.122Z,1.82
2023-02-27T22:34:42.711Z,1.92
2023-02-27T22:37:10.293Z,1.91
2023-02-27T22:39:42.104Z,1.96
2023-02-27T22:43:26.563Z,2.15
2023-02-27T22:45:53.851Z,1.91
2023-02-27T22:49:02.622Z,1.84
2023-02-27T22:51:30.848Z,1.83
2023-02-27T22:54:19.210Z,1.87
2023-02-27T22:56:49.070Z,1.73
2023-02-27T23:00:06.675Z,2.04
2023-02-27T23:03:33.852Z,1.71
2023-02-27T23:06:01.417Z,1.79
2023-02-27T23:08:29.188Z,1.83
2023-02-27T23:10:56.706Z,1.91
2023-02-27T23:13:24.332Z,2.01
2023-02-27T23:15:52.009Z,2.12
2023-02-27T23:18:19.725Z,2.04
2023-02-27T23:20:47.385Z,2.02
2023-02-27T23:23:14.859Z,1.87
2023-02-27T23:25:42.892Z,1.76
2023-02-27T23:28:10.667Z,1.90
2023-02-27T23:30:38.701Z,1.92
2023-02-27T23:33:06.270Z,1.89
2023-02-27T23:35:33.794Z,1.79
2023-02-27T23:38:01.358Z,1.78
2023-02-27T23:40:29.031Z,1.68
2023-02-27T23:42:56.717Z,1.65
2023-02-27T23:45:24.263Z,1.61
2023-02-27T23:47:59.915Z,1.64
2023-02-27T23:50:32.950Z,1.32
2023-02-27T23:53:01.140Z,1.53
2023-02-27T23:55:30.597Z,1.61
2023-02-27T23:58:00.040Z,1.52
